createdAt,value
2023-01-04T00:02:15.926Z,36.00198
2023-01-04T00:07:16.968Z,36.07746
2023-01-04T00:12:17.916Z,36.24593
2023-01-04T00:17:18.913Z,36.1651
2023-01-04T00:22:19.866Z,36.28669
2023-01-04T00:27:21.000Z,36.25811
2023-01-04T00:32:21.969Z,36.29284
2023-01-04T00:37:22.973Z,36.2985
2023-01-04T00:42:23.943Z,36.37982
2023-01-04T00:47:24.876Z,36.37443
2023-01-04T00:52:25.822Z,36.51311
2023-01-04T00:57:27.089Z,36.46116
2023-01-04T01:02:28.638Z,36.57697
2023-01-04T01:07:29.846Z,36.69243
2023-01-04T01:12:30.778Z,36.8427
2023-01-04T01:17:31.806Z,36.96954
2023-01-04T01:22:32.785Z,36.92286
2023-01-04T01:27:33.717Z,37.09031
2023-01-04T01:32:34.653Z,37.14221
2023-01-04T01:37:35.607Z,37.1883
2023-01-04T01:42:36.510Z,37.17129
2023-01-04T01:47:37.452Z,37.24652
2023-01-04T01:52:38.394Z,37.31558
2023-01-04T01:57:39.415Z,37.18831
2023-01-04T02:02:40.494Z,37.11905
2023-01-04T02:07:41.605Z,37.03813
2023-01-04T02:12:42.553Z,36.95128
2023-01-04T02:17:43.523Z,36.93991
2023-01-04T02:22:44.432Z,36.87647
2023-01-04T02:27:45.396Z,36.85936
2023-01-04T02:32:46.341Z,36.99301
2023-01-04T02:37:47.287Z,36.95266
2023-01-04T02:42:48.212Z,37.0682
2023-01-04T02:47:49.199Z,37.06815
2023-01-04T02:52:50.179Z,37.09121
2023-01-04T02:57:51.140Z,37.27643
2023-01-04T03:02:52.197Z,37.34552
2023-01-04T03:07:53.185Z,37.31063
2023-01-04T03:12:54.177Z,37.34531
2023-01-04T03:17:55.174Z,37.28744
2023-01-04T03:22:56.131Z,37.26417
2023-01-04T03:27:57.125Z,37.37994
2023-01-04T03:32:58.048Z,37.4088
2023-01-04T03:37:58.994Z,37.39701
2023-01-04T03:42:59.924Z,37.27566
2023-01-04T03:48:00.902Z,37.25839
2023-01-04T03:53:01.928Z,37.31583
2023-01-04T03:58:02.897Z,37.1426
2023-01-04T04:03:03.832Z,37.10827
2023-01-04T04:08:04.787Z,37.32182
2023-01-04T04:13:05.751Z,37.17736
2023-01-04T04:18:06.779Z,37.2002
2023-01-04T04:23:07.728Z,37.24665
2023-01-04T04:28:08.723Z,37.28123
2023-01-04T04:33:09.701Z,37.2986
2023-01-04T04:38:10.635Z,37.36226
2023-01-04T04:43:11.596Z,37.41435
2023-01-04T04:48:12.532Z,37.40244
2023-01-04T04:53:13.469Z,37.41964
2023-01-04T04:58:14.423Z,37.38488
2023-01-04T05:03:15.780Z,37.47703
2023-01-04T05:08:16.813Z,37.48282
2023-01-04T05:13:17.776Z,37.63292
2023-01-04T05:18:18.759Z,37.74831
2023-01-04T05:23:19.678Z,37.67852
2023-01-04T05:28:20.651Z,37.719
2023-01-04T05:33:21.591Z,37.74762
2023-01-04T05:38:22.517Z,37.78234
2023-01-04T05:43:23.435Z,37.71829
2023-01-04T05:48:24.412Z,37.44009
2023-01-04T05:53:25.380Z,37.61359
2023-01-04T05:58:26.374Z,37.50319
2023-01-04T06:03:27.829Z,37.41628
2023-01-04T06:08:29.037Z,37.43361
2023-01-04T06:13:30.011Z,37.46807
2023-01-04T06:18:30.988Z,37.55431
2023-01-04T06:23:31.897Z,37.43257
2023-01-04T06:28:38.616Z,37.40906
2023-01-04T06:33:41.856Z,37.35649
2023-01-04T06:38:42.805Z,37.22303
2023-01-04T06:43:43.759Z,37.26889
2023-01-04T06:48:44.717Z,37.02484
2023-01-04T06:53:45.752Z,36.88553
2023-01-04T06:58:46.756Z,36.93176
2023-01-04T07:03:47.690Z,36.73993
2023-01-04T07:08:48.617Z,36.641
2023-01-04T07:13:49.533Z,36.42562
2023-01-04T07:18:50.579Z,36.20386
2023-01-04T07:23:51.502Z,35.99386
2023-01-04T07:28:52.444Z,35.92389
2023-01-04T07:33:53.324Z,36.02744
2023-01-04T07:38:54.283Z,36.28289
2023-01-04T07:43:55.237Z,36.58452
2023-01-04T07:48:56.204Z,36.88026
2023-01-04T07:53:57.103Z,37.21094
2023-01-04T07:58:58.053Z,37.46026
2023-01-04T08:03:59.032Z,37.96511
2023-01-04T08:09:00.049Z,38.24356
2023-01-04T08:14:01.264Z,38.55658
2023-01-04T08:19:02.301Z,38.82329
2023-01-04T08:24:03.270Z,39.07838
2023-01-04T08:29:04.334Z,39.31598
2023-01-04T08:34:05.400Z,39.46089
2023-01-04T08:39:06.399Z,39.56517
2023-01-04T08:44:07.458Z,39.8551
2023-01-04T08:49:08.493Z,40.1102
2023-01-04T08:54:09.459Z,40.3943
2023-01-04T08:59:10.586Z,40.71889
2023-01-04T09:04:11.584Z,40.96233
2023-01-04T09:09:12.814Z,41.04946
2023-01-04T09:14:13.830Z,41.36793
2023-01-04T09:19:21.387Z,41.51868
2023-01-04T09:24:23.070Z,41.58251
2023-01-04T09:29:24.088Z,41.70417
2023-01-04T09:34:25.016Z,41.98233
2023-01-04T09:39:26.040Z,42.0636
2023-01-04T09:44:46.325Z,42.15637
2023-01-04T09:50:04.718Z,41.83235
2023-01-04T09:55:37.078Z,41.73984
2023-01-04T10:00:43.940Z,41.74008
2023-01-04T10:05:45.291Z,41.55494
2023-01-04T10:10:46.248Z,41.75803
2023-01-04T10:15:47.255Z,41.75824
2023-01-04T10:21:29.563Z,41.70644
2023-01-04T10:26:33.604Z,41.64815
2023-01-04T10:31:39.411Z,41.66547
2023-01-04T10:36:42.117Z,41.75249
2023-01-04T10:41:43.069Z,41.76427
2023-01-04T10:46:44.167Z,41.68304
2023-01-04T10:51:45.155Z,41.88038
2023-01-04T10:56:46.103Z,41.77655
2023-01-04T11:01:47.258Z,41.64897
2023-01-04T11:06:48.294Z,41.63728
2023-01-04T11:11:49.299Z,41.51566
2023-01-04T11:16:50.269Z,41.20222
2023-01-04T11:21:51.310Z,40.88878
2023-01-04T11:26:52.251Z,40.74955
2023-01-04T11:31:53.303Z,40.55787
2023-01-04T11:36:54.272Z,40.29053
2023-01-04T11:42:00.568Z,40.17428
2023-01-04T11:47:03.840Z,40.05217
2023-01-04T11:52:04.813Z,40.24404
2023-01-04T11:57:11.414Z,40.41844
2023-01-04T12:02:23.660Z,40.51725
2023-01-04T12:07:43.639Z,40.48821
2023-01-04T12:12:44.640Z,40.47075
2023-01-04T12:17:45.584Z,40.47081
2023-01-04T12:22:46.513Z,40.53477
2023-01-04T12:27:47.543Z,40.58128
2023-01-04T12:32:48.597Z,40.47673
2023-01-04T12:37:49.831Z,40.34296
2023-01-04T12:42:50.868Z,40.2848
2023-01-04T12:47:51.802Z,40.33135
2023-01-04T12:58:11.778Z,40.63385
2023-01-04T13:03:13.021Z,40.71529
2023-01-04T13:08:14.110Z,41.04687
2023-01-04T13:13:15.251Z,41.08761
2023-01-04T13:18:16.272Z,41.03527
2023-01-04T13:23:17.359Z,41.12823
2023-01-04T13:28:18.422Z,41.12821
2023-01-04T13:33:26.859Z,41.12822
2023-01-04T13:38:29.109Z,41.28516
2023-01-04T13:43:30.077Z,41.37223
2023-01-04T13:48:31.025Z,41.25617
2023-01-04T13:53:31.988Z,41.3143
2023-01-04T13:58:32.923Z,41.26781
2023-01-04T14:03:34.012Z,41.46562
2023-01-04T14:08:35.020Z,41.40177
2023-01-04T14:13:36.002Z,41.41355
2023-01-04T14:18:36.953Z,41.55895
2023-01-04T14:23:38.009Z,41.67532
2023-01-04T14:28:44.900Z,41.88468
2023-01-04T14:33:50.341Z,41.82672
2023-01-04T14:38:51.430Z,41.91979
2023-01-04T14:43:52.372Z,41.82117
2023-01-04T14:48:53.408Z,41.66409
2023-01-04T14:53:54.347Z,41.58884
2023-01-04T14:58:55.332Z,41.3562
2023-01-04T15:03:56.485Z,41.26891
2023-01-04T15:08:57.559Z,41.35624
2023-01-04T15:13:58.490Z,41.26884
2023-01-04T15:18:59.428Z,41.33882
2023-01-04T15:24:00.395Z,41.22822
2023-01-04T15:29:01.590Z,41.2225
2023-01-04T15:34:02.558Z,41.10029
2023-01-04T15:39:03.487Z,41.07705
2023-01-04T15:44:04.515Z,40.90826
2023-01-04T15:49:05.475Z,40.90243
2023-01-04T15:54:06.425Z,40.8791
2023-01-04T15:59:07.377Z,40.83255
2023-01-04T16:04:08.355Z,40.9024
2023-01-04T16:09:09.309Z,40.89666
2023-01-04T16:14:10.235Z,40.79181
2023-01-04T16:19:11.244Z,40.8501
2023-01-04T16:24:29.552Z,40.86759
2023-01-04T16:30:00.966Z,41.10068
2023-01-04T16:35:01.974Z,41.25221
2023-01-04T16:40:07.588Z,41.22901
2023-01-04T16:45:11.258Z,41.19403
2023-01-04T16:50:12.419Z,41.10084
2023-01-04T16:55:15.274Z,41.04827
2023-01-04T17:00:19.521Z,40.90846
2023-01-04T17:05:20.721Z,40.79198
2023-01-04T17:10:25.571Z,40.53544
2023-01-04T17:15:44.297Z,40.40131
2023-01-04T17:20:45.733Z,40.36631
2023-01-04T17:25:46.679Z,40.10957
2023-01-04T17:30:47.690Z,40.14456
2023-01-04T17:35:48.682Z,40.25543
2023-01-04T17:40:49.661Z,40.33711
2023-01-04T17:45:50.736Z,40.61712
2023-01-04T17:50:51.808Z,40.56465
2023-01-04T17:55:52.759Z,40.4013
2023-01-04T18:00:53.739Z,40.32543
2023-01-04T18:06:07.057Z,40.18539
2023-01-04T18:11:25.261Z,40.0277
2023-01-04T18:16:26.632Z,39.82906
2023-01-04T18:21:29.641Z,39.68297
2023-01-04T18:26:41.544Z,39.46666
2023-01-04T18:31:54.960Z,39.27371
2023-01-04T18:36:55.999Z,39.36752
2023-01-04T18:41:56.952Z,39.27386
2023-01-04T18:46:57.862Z,39.26218
2023-01-04T18:51:58.769Z,39.20934
2023-01-04T18:57:01.330Z,38.95161
2023-01-04T19:02:03.508Z,38.80538
2023-01-04T19:07:04.911Z,38.75845
2023-01-04T19:12:05.865Z,38.76445
2023-01-04T19:17:06.829Z,38.79966
2023-01-04T19:22:07.865Z,38.76454
2023-01-04T19:27:08.862Z,38.82306
2023-01-04T19:32:09.832Z,38.79939
2023-01-04T19:37:10.770Z,38.82267
2023-01-04T19:42:11.716Z,38.91036
2023-01-04T19:47:12.656Z,38.91014
2023-01-04T19:52:13.629Z,38.85717
2023-01-04T19:57:14.581Z,38.72207
2023-01-04T20:02:15.788Z,38.71038
2023-01-04T20:07:16.930Z,38.76893
2023-01-04T20:12:17.900Z,38.84489
2023-01-04T20:17:18.918Z,38.96206
2023-01-04T20:22:19.970Z,39.04391
2023-01-04T20:27:21.075Z,39.11404
2023-01-04T20:32:22.025Z,39.18999
2023-01-04T20:37:23.004Z,39.27192
2023-01-04T20:42:23.943Z,39.34814
2023-01-04T20:47:24.902Z,39.43014
2023-01-04T20:52:25.869Z,39.49454
2023-01-04T20:57:26.840Z,39.47107
2023-01-04T21:02:30.209Z,39.32474
2023-01-04T21:07:34.025Z,39.28371
2023-01-04T21:12:35.081Z,39.10231
2023-01-04T21:17:36.086Z,39.09644
2023-01-04T21:22:37.088Z,38.91467
2023-01-04T21:27:38.071Z,38.88506
2023-01-04T21:32:39.013Z,38.73862
2023-01-04T21:37:39.960Z,38.63897
2023-01-04T21:42:40.920Z,38.62716
2023-01-04T21:47:41.908Z,38.60354
2023-01-04T21:52:42.867Z,38.74411
2023-01-04T21:57:43.857Z,39.00755
2023-01-04T22:02:44.977Z,39.19484
2023-01-04T22:07:46.079Z,39.54058
2023-01-04T22:12:47.029Z,39.76892
2023-01-04T22:17:48.044Z,39.96784
2023-01-04T22:22:49.029Z,39.89753
2023-01-04T22:27:50.062Z,39.96214
2023-01-04T22:32:51.092Z,40.31317
2023-01-04T22:37:52.528Z,40.4535
2023-01-04T22:42:53.484Z,40.41256
2023-01-04T22:47:54.458Z,40.55297
2023-01-04T22:52:55.551Z,40.9271
2023-01-04T22:57:57.021Z,40.95055
2023-01-04T23:02:58.092Z,40.78105
2023-01-04T23:07:59.086Z,40.65237
2023-01-04T23:13:00.027Z,40.71085
2023-01-04T23:18:00.957Z,40.76348
2023-01-04T23:23:01.883Z,40.84527
2023-01-04T23:28:02.929Z,40.9329
2023-01-04T23:33:03.859Z,40.96785
2023-01-04T23:38:04.817Z,40.81592
2023-01-04T23:43:05.752Z,40.71077
2023-01-04T23:48:06.752Z,40.55303
2023-01-04T23:53:07.723Z,40.62893
2023-01-04T23:58:08.676Z,40.58221
